Terminal Aerodrome Forecast
Issued by NWS

Home | Current Version | Previous Version | Text Only | Print | Product List | Glossary On
Versions: 1 2 3 4 5 6 7 8 9 10 11 12 13 14 15 16 17 18 19 20 21 22
000
FTUS44 KBMX 250843 AAC
TAFEET
TAF AMD
KEET 250843Z 2509/2606 00000KT 6SM BR OVC004
     FM251100 00000KT 3SM BR OVC002
     FM251400 26002KT 4SM BR OVC015
     FM251800 24004KT P6SM BKN040 PROB30 2519/2523 TSRA BKN050CB=

USA.gov is the U.S. government's official web portal to all federal, state and local government web resources and services.